createdAt,value
2018-04-14T00:01:46.121Z,32.27
2018-04-14T00:04:13.596Z,29.10
2018-04-14T00:06:41.059Z,33.53
2018-04-14T00:09:08.544Z,26.47
2018-04-14T00:11:36.434Z,28.63
2018-04-14T00:14:04.043Z,32.13
2018-04-14T00:16:31.618Z,28.00
2018-04-14T00:18:59.076Z,32.53
2018-04-14T00:21:26.527Z,30.30
2018-04-14T00:23:54.001Z,31.20
2018-04-14T00:26:21.524Z,27.80
2018-04-14T00:28:49.062Z,27.40
2018-04-14T00:31:16.528Z,30.10
2018-04-14T00:33:43.990Z,28.30
2018-04-14T00:36:11.923Z,52.53
2018-04-14T00:38:39.448Z,33.20
2018-04-14T00:41:06.925Z,38.57
2018-04-14T00:43:34.386Z,39.37
2018-04-14T00:46:01.837Z,25.90
2018-04-14T00:48:29.312Z,27.10
2018-04-14T00:50:56.825Z,26.83
2018-04-14T00:53:36.546Z,24.67
2018-04-14T00:56:03.995Z,29.20
2018-04-14T00:58:31.480Z,26.67
2018-04-14T01:00:59.389Z,27.17
2018-04-14T01:03:26.853Z,30.03
2018-04-14T01:05:54.342Z,29.27
2018-04-14T01:08:22.400Z,29.47
2018-04-14T01:10:49.866Z,28.70
2018-04-14T01:13:17.363Z,29.17
2018-04-14T01:15:44.916Z,28.33
2018-04-14T01:18:12.394Z,25.60
2018-04-14T01:20:39.840Z,27.00
2018-04-14T01:23:07.319Z,26.90
2018-04-14T01:25:34.779Z,27.97
2018-04-14T01:28:02.658Z,27.60
2018-04-14T01:30:30.179Z,28.43
2018-04-14T01:32:57.633Z,25.23
2018-04-14T01:35:25.100Z,26.20
2018-04-14T01:37:52.625Z,29.97
2018-04-14T01:40:20.484Z,26.90
2018-04-14T01:42:48.348Z,24.77
2018-04-14T01:45:15.818Z,26.30
2018-04-14T01:47:43.771Z,26.00
2018-04-14T01:50:11.348Z,24.33
2018-04-14T01:52:38.847Z,22.27
2018-04-14T01:55:06.825Z,27.27
2018-04-14T01:57:34.283Z,25.53
2018-04-14T02:00:01.812Z,25.10
2018-04-14T02:02:29.316Z,23.33
2018-04-14T02:04:56.770Z,26.50
2018-04-14T02:07:24.297Z,23.30
2018-04-14T02:09:51.746Z,28.03
2018-04-14T02:12:19.202Z,27.20
2018-04-14T02:14:46.683Z,26.63
2018-04-14T02:17:14.234Z,23.80
2018-04-14T02:19:41.691Z,26.03
2018-04-14T02:22:09.170Z,26.50
2018-04-14T02:24:36.652Z,28.47
2018-04-14T02:27:04.593Z,29.93
2018-04-14T02:29:32.063Z,28.30
2018-04-14T02:31:59.522Z,31.80
2018-04-14T02:34:27.074Z,36.20
2018-04-14T02:36:54.544Z,36.80
2018-04-14T02:39:22.057Z,33.90
2018-04-14T02:41:49.522Z,37.60
2018-04-14T02:44:16.983Z,32.57
2018-04-14T02:46:44.455Z,37.57
2018-04-14T02:49:11.950Z,46.00
2018-04-14T02:51:39.420Z,54.17
2018-04-14T02:54:06.872Z,43.47
2018-04-14T02:56:34.356Z,52.73
2018-04-14T02:59:01.896Z,48.03
2018-04-14T03:01:29.472Z,63.03
2018-04-14T03:03:57.024Z,53.07
2018-04-14T03:06:24.589Z,49.60
2018-04-14T03:08:52.055Z,51.70
2018-04-14T03:11:19.510Z,58.50
2018-04-14T03:13:46.962Z,56.90
2018-04-14T03:16:14.469Z,74.20
2018-04-14T03:18:42.424Z,91.87
2018-04-14T03:21:09.901Z,65.40
2018-04-14T03:23:37.451Z,53.70
2018-04-14T03:26:04.921Z,86.03
2018-04-14T03:28:32.474Z,52.63
2018-04-14T03:30:59.937Z,55.47
2018-04-14T03:33:27.442Z,58.57
2018-04-14T03:35:54.946Z,68.27
2018-04-14T03:38:22.449Z,80.33
2018-04-14T03:40:50.396Z,79.77
2018-04-14T03:43:18.315Z,96.93
2018-04-14T03:45:45.820Z,80.53
2018-04-14T03:48:13.367Z,59.50
2018-04-14T03:50:40.899Z,70.10
2018-04-14T03:53:09.138Z,88.83
2018-04-14T03:55:36.739Z,63.37
2018-04-14T03:58:04.631Z,69.93
2018-04-14T04:00:32.129Z,56.67
2018-04-14T04:02:59.667Z,72.07
2018-04-14T04:05:27.288Z,75.00
2018-04-14T04:07:55.193Z,66.87
2018-04-14T04:10:22.704Z,63.47
2018-04-14T04:12:50.205Z,55.23
2018-04-14T04:15:17.782Z,74.37
2018-04-14T04:17:45.319Z,68.03
2018-04-14T04:33:41.168Z,48.97
2018-04-14T04:36:08.659Z,51.27
2018-04-14T04:38:36.238Z,53.67
2018-04-14T04:41:04.353Z,40.87
2018-04-14T04:43:31.888Z,52.30
2018-04-14T04:45:59.982Z,48.17
2018-04-14T04:48:27.520Z,64.00
2018-04-14T04:50:55.769Z,43.37
2018-04-14T04:53:23.264Z,50.43
2018-04-14T04:55:51.434Z,56.23
2018-04-14T04:58:19.345Z,40.07
2018-04-14T05:00:46.883Z,58.83
2018-04-14T05:03:14.381Z,50.50
2018-04-14T05:05:41.880Z,46.33
2018-04-14T05:08:09.485Z,81.20
2018-04-14T05:10:37.043Z,54.07
2018-04-14T05:13:04.512Z,71.97
2018-04-14T05:15:31.998Z,68.10
2018-04-14T05:17:59.523Z,64.83
2018-04-14T05:20:27.391Z,79.00
2018-04-14T05:22:54.956Z,58.17
2018-04-14T05:25:22.931Z,41.77
2018-04-14T05:27:50.838Z,39.50
2018-04-14T05:30:18.333Z,42.57
2018-04-14T05:32:45.952Z,48.90
2018-04-14T05:35:13.528Z,62.83
2018-04-14T05:37:40.996Z,34.47
2018-04-14T05:40:08.494Z,35.43
2018-04-14T05:42:36.006Z,45.03
2018-04-14T05:45:03.534Z,31.27
2018-04-14T05:47:31.478Z,34.37
2018-04-14T05:49:58.949Z,36.57
2018-04-14T05:52:26.527Z,31.37
2018-04-14T05:54:54.005Z,30.03
2018-04-14T05:57:21.931Z,32.17
2018-04-14T05:59:49.466Z,31.27
2018-04-14T06:02:16.957Z,31.10
2018-04-14T06:04:44.483Z,31.50
2018-04-14T06:07:12.363Z,34.00
2018-04-14T06:09:39.892Z,38.83
2018-04-14T06:12:07.494Z,39.13
2018-04-14T06:14:35.020Z,39.80
2018-04-14T06:17:03.000Z,29.40
2018-04-14T06:19:30.484Z,26.47
2018-04-14T06:21:57.974Z,38.40
2018-04-14T06:24:25.527Z,40.77
2018-04-14T06:26:53.088Z,50.93
2018-04-14T06:29:20.589Z,51.87
2018-04-14T06:31:48.112Z,32.40
2018-04-14T06:34:15.648Z,31.93
2018-04-14T06:36:43.595Z,29.80
2018-04-14T06:39:11.078Z,27.53
2018-04-14T06:41:38.977Z,34.77
2018-04-14T06:44:06.495Z,34.90
2018-04-14T06:46:34.083Z,32.83
2018-04-14T06:49:02.070Z,33.73
2018-04-14T06:51:29.569Z,36.30
2018-04-14T06:53:57.088Z,38.03
2018-04-14T06:56:25.008Z,37.53
2018-04-14T06:58:52.525Z,35.27
2018-04-14T07:01:20.629Z,29.90
2018-04-14T07:03:48.142Z,30.13
2018-04-14T07:06:16.628Z,38.07
2018-04-14T07:08:44.132Z,31.70
2018-04-14T07:11:11.673Z,32.70
2018-04-14T07:13:39.576Z,41.63
2018-04-14T07:16:07.059Z,34.40
2018-04-14T07:18:34.559Z,45.13
2018-04-14T07:21:02.061Z,36.43
2018-04-14T07:23:29.545Z,34.87
2018-04-14T07:25:57.098Z,34.80
2018-04-14T07:41:30.800Z,32.33
2018-04-14T07:43:58.312Z,32.27
2018-04-14T07:46:26.295Z,29.90
2018-04-14T07:48:53.913Z,29.63
2018-04-14T07:51:21.511Z,31.70
2018-04-14T07:53:49.503Z,33.00
2018-04-14T07:56:17.099Z,29.53
2018-04-14T07:58:44.619Z,32.67
2018-04-14T08:01:12.599Z,32.90
2018-04-14T08:03:40.115Z,31.37
2018-04-14T08:06:07.698Z,32.63
2018-04-14T08:08:35.199Z,34.53
2018-04-14T08:11:02.694Z,32.57
2018-04-14T08:13:30.210Z,32.60
2018-04-14T08:15:58.101Z,30.27
2018-04-14T08:18:25.683Z,29.07
2018-04-14T08:20:53.203Z,28.50
2018-04-14T08:23:21.683Z,27.37
2018-04-14T08:25:50.194Z,28.70
2018-04-14T08:28:17.713Z,29.00
2018-04-14T08:30:45.342Z,30.90
2018-04-14T08:33:12.844Z,27.60
2018-04-14T08:35:40.453Z,30.03
2018-04-14T08:38:07.950Z,29.53
2018-04-14T08:40:35.553Z,27.17
2018-04-14T08:43:03.508Z,28.87
2018-04-14T08:45:31.173Z,31.50
2018-04-14T08:47:58.711Z,27.57
2018-04-14T08:50:26.514Z,24.37
2018-04-14T08:52:54.024Z,25.90
2018-04-14T08:55:21.638Z,27.47
2018-04-14T08:57:49.159Z,28.60
2018-04-14T09:00:16.699Z,25.50
2018-04-14T09:02:44.189Z,23.77
2018-04-14T09:05:11.771Z,23.50
2018-04-14T09:07:40.041Z,23.40
2018-04-14T09:10:07.585Z,19.10
2018-04-14T09:12:35.121Z,19.53
2018-04-14T09:15:03.007Z,17.27
2018-04-14T09:17:30.565Z,20.37
2018-04-14T09:19:58.587Z,19.57
2018-04-14T09:22:26.127Z,17.23
2018-04-14T09:24:53.630Z,17.10
2018-04-14T09:27:21.152Z,12.40
2018-04-14T09:29:48.692Z,14.30
2018-04-14T09:32:16.639Z,12.70
2018-04-14T09:34:44.136Z,13.83
2018-04-14T09:37:11.636Z,11.23
2018-04-14T09:39:39.124Z,12.70
2018-04-14T09:42:06.634Z,12.43
2018-04-14T09:44:34.388Z,12.20
2018-04-14T09:47:02.261Z,10.10
2018-04-14T09:49:30.146Z,9.97
2018-04-14T09:51:57.674Z,9.87
2018-04-14T09:54:25.158Z,10.13
2018-04-14T09:56:52.773Z,9.77
2018-04-14T09:59:20.268Z,9.10
2018-04-14T10:01:51.242Z,9.10
2018-04-14T10:04:18.718Z,9.50
2018-04-14T10:06:46.632Z,9.70
2018-04-14T10:09:14.218Z,8.13
2018-04-14T10:11:42.087Z,8.20
2018-04-14T10:14:10.076Z,8.07
2018-04-14T10:16:37.577Z,8.33
2018-04-14T10:19:05.096Z,7.80
2018-04-14T10:21:33.033Z,7.80
2018-04-14T10:24:00.712Z,6.93
2018-04-14T10:26:28.604Z,7.10
2018-04-14T10:28:56.592Z,7.67
2018-04-14T10:31:24.076Z,8.17
2018-04-14T10:33:51.693Z,7.70
2018-04-14T10:36:19.284Z,9.50
2018-04-14T10:38:46.783Z,8.93
2018-04-14T10:41:14.273Z,8.47
2018-04-14T10:43:41.770Z,8.00
2018-04-14T10:46:09.731Z,8.70
2018-04-14T10:48:37.220Z,8.23
2018-04-14T10:51:04.708Z,8.70
2018-04-14T10:53:32.209Z,8.77
2018-04-14T10:55:59.754Z,10.27
2018-04-14T10:58:27.350Z,10.03
2018-04-14T11:00:55.266Z,10.33
2018-04-14T11:03:22.774Z,9.77
2018-04-14T11:05:50.852Z,12.40
2018-04-14T11:08:18.371Z,11.47
2018-04-14T11:10:45.928Z,11.47
2018-04-14T11:13:13.429Z,13.63
2018-04-14T11:15:41.005Z,12.00
2018-04-14T11:18:08.548Z,11.97
2018-04-14T11:20:36.565Z,13.57
2018-04-14T11:23:04.105Z,12.20
2018-04-14T11:25:32.100Z,12.33
2018-04-14T11:27:59.992Z,13.53
2018-04-14T11:30:27.543Z,12.43
2018-04-14T11:32:55.414Z,15.70
2018-04-14T11:35:23.852Z,12.00
2018-04-14T11:37:51.346Z,12.20
2018-04-14T11:40:19.285Z,12.80
2018-04-14T11:42:46.810Z,12.13
2018-04-14T11:45:14.956Z,20.63
2018-04-14T11:47:42.898Z,31.40
2018-04-14T11:50:10.367Z,13.57
2018-04-14T11:52:37.899Z,15.53
2018-04-14T11:55:05.419Z,13.50
2018-04-14T11:57:33.285Z,16.17
2018-04-14T12:00:01.277Z,10.10
2018-04-14T12:02:29.163Z,9.73
2018-04-14T12:04:56.664Z,10.37
2018-04-14T12:07:24.169Z,12.27
2018-04-14T12:09:52.087Z,11.00
2018-04-14T12:12:19.633Z,9.10
2018-04-14T12:14:47.114Z,9.53
2018-04-14T12:17:14.637Z,9.60
2018-04-14T12:19:42.510Z,8.77
2018-04-14T12:22:09.999Z,10.60
2018-04-14T12:24:37.636Z,9.93
2018-04-14T12:27:05.534Z,11.43
2018-04-14T12:29:33.022Z,8.10
2018-04-14T12:32:00.640Z,8.00
2018-04-14T12:34:28.177Z,38.10
2018-04-14T12:36:56.289Z,65.80
2018-04-14T12:39:24.252Z,84.50
2018-04-14T12:41:51.966Z,32.43
2018-04-14T12:44:19.803Z,18.37
2018-04-14T12:46:47.483Z,25.67
2018-04-14T12:49:15.690Z,16.87
2018-04-14T12:51:43.387Z,9.70
2018-04-14T12:54:11.204Z,15.03
2018-04-14T12:56:38.730Z,9.80
2018-04-14T12:59:06.298Z,48.50
2018-04-14T13:01:34.286Z,17.13
2018-04-14T13:04:02.143Z,7.00
2018-04-14T13:06:30.040Z,6.90
2018-04-14T13:08:57.609Z,6.70
2018-04-14T13:11:25.071Z,5.30
2018-04-14T13:13:53.033Z,5.77
2018-04-14T13:16:20.621Z,4.27
2018-04-14T13:18:48.571Z,4.63
2018-04-14T13:21:16.449Z,5.30
2018-04-14T13:23:44.127Z,6.03
2018-04-14T13:26:11.868Z,6.23
2018-04-14T13:28:46.654Z,5.90
2018-04-14T13:31:14.369Z,6.73
2018-04-14T13:33:41.953Z,6.60
2018-04-14T13:36:10.185Z,6.43
2018-04-14T13:38:37.760Z,7.93
2018-04-14T13:41:05.739Z,6.60
2018-04-14T13:43:34.330Z,6.87
2018-04-14T13:46:02.331Z,6.47
2018-04-14T13:48:30.021Z,5.60
2018-04-14T13:50:57.775Z,4.63
2018-04-14T13:53:25.428Z,4.47
2018-04-14T13:55:53.006Z,5.40
2018-04-14T13:58:20.849Z,5.47
2018-04-14T14:00:48.646Z,7.03
2018-04-14T14:06:15.330Z,4.07
2018-04-14T14:08:42.905Z,3.30
2018-04-14T14:11:10.560Z,3.40
2018-04-14T14:13:38.486Z,5.43
2018-04-14T14:16:06.087Z,5.20
2018-04-14T14:18:34.636Z,4.80
2018-04-14T14:21:03.346Z,9.97
2018-04-14T14:23:31.544Z,3.97
2018-04-14T14:25:59.891Z,3.83
2018-04-14T14:28:27.738Z,3.20
2018-04-14T14:30:55.920Z,5.23
2018-04-14T14:33:24.930Z,3.80
2018-04-14T14:35:53.327Z,3.77
2018-04-14T14:38:21.200Z,3.00
2018-04-14T14:40:49.404Z,3.20
2018-04-14T14:43:17.798Z,3.40
2018-04-14T14:45:46.872Z,5.63
2018-04-14T14:48:17.237Z,4.07
2018-04-14T14:50:45.840Z,3.50
2018-04-14T14:53:13.613Z,2.80
2018-04-14T14:55:42.304Z,3.57
2018-04-14T14:58:10.229Z,4.33
2018-04-14T15:00:38.377Z,3.00
2018-04-14T15:03:06.065Z,2.70
2018-04-14T15:05:33.650Z,6.90
2018-04-14T15:08:01.210Z,4.20
2018-04-14T15:10:28.793Z,2.80
2018-04-14T15:12:56.405Z,2.87
2018-04-14T15:15:24.914Z,2.07
2018-04-14T15:17:52.453Z,2.60
2018-04-14T15:20:20.000Z,2.80
2018-04-14T15:22:47.964Z,2.20
2018-04-14T15:25:15.935Z,2.37
2018-04-14T15:27:43.396Z,4.20
2018-04-14T15:30:11.408Z,5.30
2018-04-14T15:32:38.937Z,4.07
2018-04-14T15:35:06.892Z,2.60
2018-04-14T15:37:34.524Z,1.90
2018-04-14T15:40:02.065Z,3.00
2018-04-14T15:42:29.587Z,3.40
2018-04-14T15:44:57.153Z,2.43
2018-04-14T15:47:24.751Z,3.37
2018-04-14T15:49:52.308Z,1.80
2018-04-14T15:52:19.887Z,10.63
2018-04-14T15:54:48.442Z,3.33
2018-04-14T15:57:16.377Z,2.43
2018-04-14T15:59:44.226Z,1.70
2018-04-14T16:02:11.781Z,2.00
2018-04-14T16:04:39.361Z,2.30
2018-04-14T16:07:10.854Z,2.60
2018-04-14T16:09:38.355Z,2.70
2018-04-14T16:12:05.906Z,2.40
2018-04-14T16:14:33.835Z,4.73
2018-04-14T16:17:01.421Z,4.47
2018-04-14T16:19:29.012Z,4.43
2018-04-14T16:21:56.964Z,5.63
2018-04-14T16:24:24.517Z,9.20
2018-04-14T16:26:52.558Z,3.30
2018-04-14T16:29:20.092Z,3.00
2018-04-14T16:31:48.073Z,4.30
2018-04-14T16:34:15.627Z,3.90
2018-04-14T16:36:43.568Z,2.63
2018-04-14T16:39:11.198Z,2.10
2018-04-14T16:41:39.368Z,2.50
2018-04-14T16:44:07.357Z,2.90
2018-04-14T16:46:35.337Z,5.87
2018-04-14T16:49:02.954Z,2.60
2018-04-14T16:51:30.945Z,2.30
2018-04-14T16:53:58.523Z,2.57
2018-04-14T16:56:26.201Z,3.70
2018-04-14T16:58:54.330Z,3.50
2018-04-14T17:01:22.424Z,7.40
2018-04-14T17:03:50.405Z,2.83
2018-04-14T17:06:17.966Z,3.37
2018-04-14T17:08:45.574Z,3.20
2018-04-14T17:11:13.246Z,5.47
2018-04-14T17:13:42.384Z,17.27
2018-04-14T17:16:11.522Z,6.50
2018-04-14T17:18:39.994Z,3.60
2018-04-14T17:21:07.612Z,3.57
2018-04-14T17:23:35.771Z,7.10
2018-04-14T17:26:03.341Z,3.80
2018-04-14T17:28:30.878Z,4.30
2018-04-14T17:30:58.427Z,4.13
2018-04-14T17:33:26.048Z,5.47
2018-04-14T17:35:53.567Z,5.70
2018-04-14T17:38:21.101Z,3.20
2018-04-14T17:40:49.093Z,4.90
2018-04-14T17:43:16.674Z,5.00
2018-04-14T17:45:44.242Z,4.40
2018-04-14T17:48:11.754Z,4.80
2018-04-14T17:50:39.729Z,5.37
2018-04-14T17:53:07.687Z,5.20
2018-04-14T17:55:35.261Z,6.83
2018-04-14T17:58:02.979Z,7.63
2018-04-14T18:00:30.489Z,7.00
2018-04-14T18:02:58.052Z,6.80
2018-04-14T18:05:25.856Z,7.93
2018-04-14T18:07:53.746Z,6.87
2018-04-14T18:10:21.412Z,9.43
2018-04-14T18:12:48.925Z,6.83
2018-04-14T18:15:16.431Z,8.80
2018-04-14T18:17:44.909Z,7.10
2018-04-14T18:20:12.512Z,8.20
2018-04-14T18:22:40.055Z,6.90
2018-04-14T18:25:07.583Z,5.60
2018-04-14T18:27:35.710Z,8.80
2018-04-14T18:30:03.284Z,6.57
2018-04-14T18:32:31.035Z,7.47
2018-04-14T18:34:59.020Z,6.00
2018-04-14T18:37:27.172Z,7.60
2018-04-14T18:39:54.961Z,8.53
2018-04-14T18:42:22.545Z,7.43
2018-04-14T18:44:50.142Z,7.43
2018-04-14T18:47:18.148Z,7.23
2018-04-14T18:49:45.706Z,8.40
2018-04-14T18:52:13.634Z,6.90
2018-04-14T18:54:41.172Z,10.10
2018-04-14T18:57:08.730Z,8.23
2018-04-14T18:59:36.909Z,7.80
2018-04-14T19:02:04.547Z,7.33
2018-04-14T19:04:32.153Z,7.37
2018-04-14T19:07:00.668Z,9.67
2018-04-14T19:09:28.479Z,7.70
2018-04-14T19:11:56.285Z,7.20
2018-04-14T19:14:23.815Z,9.80
2018-04-14T19:16:51.432Z,7.70
2018-04-14T19:19:19.034Z,8.60
2018-04-14T19:21:46.690Z,9.63
2018-04-14T19:24:14.393Z,8.90
2018-04-14T19:26:41.990Z,10.07
2018-04-14T19:29:09.839Z,9.63
2018-04-14T19:31:37.399Z,10.03
2018-04-14T19:34:04.998Z,10.50
2018-04-14T19:36:32.803Z,9.97
2018-04-14T19:39:01.954Z,17.07
2018-04-14T19:41:29.534Z,9.67
2018-04-14T19:43:57.078Z,9.63
2018-04-14T19:46:24.666Z,11.40
2018-04-14T19:48:52.278Z,24.30
2018-04-14T19:51:19.823Z,16.97
2018-04-14T19:53:47.359Z,12.00
2018-04-14T19:56:14.922Z,10.47
2018-04-14T19:58:42.532Z,9.53
2018-04-14T20:01:10.730Z,10.10
2018-04-14T20:03:38.760Z,12.27
2018-04-14T20:06:06.331Z,11.33
2018-04-14T20:08:34.355Z,9.70
2018-04-14T20:11:01.867Z,10.83
2018-04-14T20:13:29.469Z,11.37
2018-04-14T20:15:57.018Z,9.53
2018-04-14T20:18:24.964Z,12.43
2018-04-14T20:20:53.931Z,10.70
2018-04-14T20:23:21.567Z,10.30
2018-04-14T20:25:49.249Z,12.47
2018-04-14T20:28:16.841Z,11.03
2018-04-14T20:30:44.575Z,13.23
2018-04-14T20:33:12.337Z,11.47
2018-04-14T20:35:39.892Z,10.70
2018-04-14T20:38:07.512Z,13.50
2018-04-14T20:40:35.122Z,9.40
2018-04-14T20:43:02.659Z,10.13
2018-04-14T20:45:30.341Z,10.73
2018-04-14T20:47:57.899Z,10.77
2018-04-14T20:50:25.452Z,8.87
2018-04-14T20:52:53.055Z,7.90
2018-04-14T20:55:20.711Z,7.10
2018-04-14T20:57:48.239Z,9.23
2018-04-14T21:00:16.193Z,8.00
2018-04-14T21:02:44.107Z,9.20
2018-04-14T21:05:11.638Z,7.33
2018-04-14T21:07:39.606Z,6.90
2018-04-14T21:10:07.099Z,6.97
2018-04-14T21:12:34.981Z,7.90
2018-04-14T21:15:02.470Z,7.57
2018-04-14T21:17:29.999Z,8.60
2018-04-14T21:19:57.490Z,9.33
2018-04-14T21:22:24.989Z,12.70
2018-04-14T21:24:52.480Z,9.67
2018-04-14T21:27:20.450Z,10.03
2018-04-14T21:29:48.314Z,9.93
2018-04-14T21:32:16.225Z,8.63
2018-04-14T21:34:43.724Z,7.80
2018-04-14T21:37:11.238Z,7.03
2018-04-14T21:39:38.793Z,10.67
2018-04-14T21:42:06.794Z,6.80
2018-04-14T21:44:34.288Z,7.23
2018-04-14T21:47:01.910Z,8.57
2018-04-14T21:49:29.392Z,7.70
2018-04-14T21:51:56.897Z,7.90
2018-04-14T21:54:24.584Z,8.23
2018-04-14T21:56:52.482Z,9.47
2018-04-14T21:59:20.027Z,8.10
2018-04-14T22:01:47.578Z,7.90
2018-04-14T22:04:15.544Z,8.73
2018-04-14T22:06:43.036Z,8.73
2018-04-14T22:09:10.547Z,8.17
2018-04-14T22:11:38.052Z,9.20
2018-04-14T22:14:05.963Z,8.37
2018-04-14T22:16:33.522Z,8.77
2018-04-14T22:19:01.025Z,8.50
2018-04-14T22:21:28.538Z,9.03
2018-04-14T22:23:56.053Z,8.27
2018-04-14T22:26:23.565Z,8.80
2018-04-14T22:28:51.215Z,8.53
2018-04-14T22:31:18.712Z,10.03
2018-04-14T22:33:47.100Z,11.70
2018-04-14T22:36:14.617Z,10.07
2018-04-14T22:38:42.149Z,11.03
2018-04-14T22:41:09.744Z,10.13
2018-04-14T22:43:37.256Z,11.30
2018-04-14T22:46:04.864Z,8.33
2018-04-14T22:48:32.867Z,9.90
2018-04-14T22:51:00.418Z,10.00
2018-04-14T22:53:28.292Z,11.53
2018-04-14T22:55:55.921Z,9.63
2018-04-14T22:58:23.471Z,9.87
2018-04-14T23:00:50.951Z,10.00
2018-04-14T23:03:18.544Z,14.10
2018-04-14T23:05:46.055Z,10.20
2018-04-14T23:08:13.646Z,9.97
2018-04-14T23:10:41.863Z,12.63
2018-04-14T23:13:09.402Z,10.37
2018-04-14T23:15:37.363Z,9.33
2018-04-14T23:18:04.924Z,9.30
2018-04-14T23:20:32.491Z,11.70
2018-04-14T23:22:59.962Z,9.83
2018-04-14T23:25:27.857Z,13.73
2018-04-14T23:27:55.314Z,10.17
2018-04-14T23:30:22.872Z,10.57
2018-04-14T23:32:50.838Z,9.53
2018-04-14T23:35:18.739Z,10.03
2018-04-14T23:37:46.261Z,10.93
2018-04-14T23:40:14.156Z,9.90
2018-04-14T23:42:42.052Z,11.37
2018-04-14T23:45:09.584Z,9.90
2018-04-14T23:47:37.460Z,13.47
2018-04-14T23:50:04.950Z,9.80
2018-04-14T23:52:32.454Z,9.93
2018-04-14T23:54:59.950Z,10.37
2018-04-14T23:57:27.906Z,11.13
2018-04-14T23:59:55.787Z,10.23
